sensor_id;sensor_type;location;lat;lon;timestamp;P1;durP1;ratioP1;P2;durP2;ratioP2
66751;SDS011;53663;42.676;23.238;2023-05-16T00:01:55;17.98;;;13.07;;
66751;SDS011;53663;42.676;23.238;2023-05-16T00:04:21;24.52;;;12.38;;
66751;SDS011;53663;42.676;23.238;2023-05-16T00:06:47;19.38;;;12.77;;
66751;SDS011;53663;42.676;23.238;2023-05-16T00:09:13;18.13;;;12.65;;
66751;SDS011;53663;42.676;23.238;2023-05-16T00:11:38;17.73;;;12.73;;
66751;SDS011;53663;42.676;23.238;2023-05-16T00:14:04;18.73;;;13.13;;
66751;SDS011;53663;42.676;23.238;2023-05-16T00:16:29;21.60;;;13.45;;
66751;SDS011;53663;42.676;23.238;2023-05-16T00:18:55;22.70;;;13.80;;
66751;SDS011;53663;42.676;23.238;2023-05-16T00:21:25;21.88;;;12.25;;
66751;SDS011;53663;42.676;23.238;2023-05-16T00:23:50;20.33;;;12.20;;
66751;SDS011;53663;42.676;23.238;2023-05-16T00:26:17;20.27;;;13.00;;
66751;SDS011;53663;42.676;23.238;2023-05-16T00:28:43;19.98;;;13.20;;
66751;SDS011;53663;42.676;23.238;2023-05-16T00:31:08;19.60;;;13.30;;
66751;SDS011;53663;42.676;23.238;2023-05-16T00:33:34;17.42;;;12.60;;
66751;SDS011;53663;42.676;23.238;2023-05-16T00:35:59;21.42;;;13.02;;
66751;SDS011;53663;42.676;23.238;2023-05-16T00:38:25;18.95;;;12.13;;
66751;SDS011;53663;42.676;23.238;2023-05-16T00:40:50;16.27;;;12.75;;
66751;SDS011;53663;42.676;23.238;2023-05-16T00:43:16;16.58;;;12.82;;
66751;SDS011;53663;42.676;23.238;2023-05-16T00:45:41;19.50;;;12.35;;
66751;SDS011;53663;42.676;23.238;2023-05-16T00:48:08;18.27;;;11.35;;
66751;SDS011;53663;42.676;23.238;2023-05-16T00:50:33;24.15;;;12.73;;
66751;SDS011;53663;42.676;23.238;2023-05-16T00:53:00;18.98;;;12.20;;
66751;SDS011;53663;42.676;23.238;2023-05-16T00:55:26;19.90;;;12.10;;
66751;SDS011;53663;42.676;23.238;2023-05-16T00:57:52;19.38;;;12.45;;
66751;SDS011;53663;42.676;23.238;2023-05-16T01:00:17;16.90;;;12.20;;
66751;SDS011;53663;42.676;23.238;2023-05-16T01:02:44;17.50;;;11.98;;
66751;SDS011;53663;42.676;23.238;2023-05-16T01:05:10;21.80;;;12.93;;
66751;SDS011;53663;42.676;23.238;2023-05-16T01:07:36;15.27;;;11.63;;
66751;SDS011;53663;42.676;23.238;2023-05-16T01:10:02;19.15;;;11.95;;
66751;SDS011;53663;42.676;23.238;2023-05-16T01:28:21;20.35;;;12.27;;
66751;SDS011;53663;42.676;23.238;2023-05-16T01:30:49;18.10;;;13.13;;
66751;SDS011;53663;42.676;23.238;2023-05-16T01:33:15;22.42;;;11.82;;
66751;SDS011;53663;42.676;23.238;2023-05-16T01:35:42;17.48;;;11.65;;
66751;SDS011;53663;42.676;23.238;2023-05-16T01:40:52;22.50;;;12.43;;
66751;SDS011;53663;42.676;23.238;2023-05-16T01:46:20;17.92;;;13.10;;
66751;SDS011;53663;42.676;23.238;2023-05-16T01:51:55;16.48;;;12.23;;
66751;SDS011;53663;42.676;23.238;2023-05-16T01:54:25;24.77;;;13.57;;
66751;SDS011;53663;42.676;23.238;2023-05-16T01:56:55;23.30;;;13.20;;
66751;SDS011;53663;42.676;23.238;2023-05-16T01:59:23;21.83;;;14.43;;
66751;SDS011;53663;42.676;23.238;2023-05-16T02:01:52;19.20;;;13.73;;
66751;SDS011;53663;42.676;23.238;2023-05-16T02:04:19;27.33;;;15.77;;
66751;SDS011;53663;42.676;23.238;2023-05-16T02:06:45;23.45;;;14.35;;
66751;SDS011;53663;42.676;23.238;2023-05-16T02:09:11;19.02;;;14.73;;
66751;SDS011;53663;42.676;23.238;2023-05-16T02:11:39;19.98;;;13.93;;
66751;SDS011;53663;42.676;23.238;2023-05-16T02:14:04;22.40;;;14.15;;
66751;SDS011;53663;42.676;23.238;2023-05-16T02:16:30;19.85;;;13.82;;
66751;SDS011;53663;42.676;23.238;2023-05-16T02:18:57;21.30;;;13.73;;
66751;SDS011;53663;42.676;23.238;2023-05-16T02:21:22;23.50;;;15.00;;
66751;SDS011;53663;42.676;23.238;2023-05-16T02:23:48;21.95;;;14.50;;
66751;SDS011;53663;42.676;23.238;2023-05-16T02:26:13;20.95;;;14.15;;
66751;SDS011;53663;42.676;23.238;2023-05-16T02:28:39;22.25;;;13.50;;
66751;SDS011;53663;42.676;23.238;2023-05-16T02:31:05;18.90;;;13.57;;
66751;SDS011;53663;42.676;23.238;2023-05-16T02:33:30;20.90;;;13.65;;
66751;SDS011;53663;42.676;23.238;2023-05-16T02:35:56;21.33;;;13.80;;
66751;SDS011;53663;42.676;23.238;2023-05-16T02:38:24;19.88;;;14.25;;
66751;SDS011;53663;42.676;23.238;2023-05-16T02:40:50;17.13;;;13.27;;
66751;SDS011;53663;42.676;23.238;2023-05-16T02:43:15;20.77;;;13.95;;
66751;SDS011;53663;42.676;23.238;2023-05-16T02:45:41;24.00;;;13.93;;
66751;SDS011;53663;42.676;23.238;2023-05-16T02:48:06;21.58;;;13.77;;
66751;SDS011;53663;42.676;23.238;2023-05-16T02:50:33;21.85;;;12.88;;
66751;SDS011;53663;42.676;23.238;2023-05-16T02:52:59;18.80;;;13.18;;
66751;SDS011;53663;42.676;23.238;2023-05-16T02:55:26;17.10;;;12.15;;
66751;SDS011;53663;42.676;23.238;2023-05-16T02:57:53;17.25;;;12.90;;
66751;SDS011;53663;42.676;23.238;2023-05-16T03:00:19;19.55;;;12.77;;
66751;SDS011;53663;42.676;23.238;2023-05-16T03:02:45;18.23;;;13.85;;
66751;SDS011;53663;42.676;23.238;2023-05-16T03:05:11;17.33;;;14.65;;
66751;SDS011;53663;42.676;23.238;2023-05-16T03:07:37;24.75;;;14.95;;
66751;SDS011;53663;42.676;23.238;2023-05-16T03:10:04;20.63;;;13.93;;
66751;SDS011;53663;42.676;23.238;2023-05-16T03:12:30;20.23;;;13.88;;
66751;SDS011;53663;42.676;23.238;2023-05-16T03:14:55;25.35;;;14.98;;
66751;SDS011;53663;42.676;23.238;2023-05-16T03:17:21;24.50;;;15.20;;
66751;SDS011;53663;42.676;23.238;2023-05-16T03:19:46;23.70;;;14.88;;
66751;SDS011;53663;42.676;23.238;2023-05-16T03:22:12;25.33;;;15.02;;
66751;SDS011;53663;42.676;23.238;2023-05-16T03:24:41;24.98;;;13.93;;
66751;SDS011;53663;42.676;23.238;2023-05-16T03:27:09;26.48;;;13.90;;
66751;SDS011;53663;42.676;23.238;2023-05-16T03:29:35;17.95;;;12.73;;
66751;SDS011;53663;42.676;23.238;2023-05-16T03:32:01;22.48;;;13.93;;
66751;SDS011;53663;42.676;23.238;2023-05-16T03:34:26;21.85;;;12.10;;
66751;SDS011;53663;42.676;23.238;2023-05-16T03:36:52;20.85;;;13.50;;
66751;SDS011;53663;42.676;23.238;2023-05-16T03:39:19;22.50;;;12.90;;
66751;SDS011;53663;42.676;23.238;2023-05-16T03:41:44;18.42;;;12.95;;
66751;SDS011;53663;42.676;23.238;2023-05-16T03:44:10;21.98;;;13.50;;
66751;SDS011;53663;42.676;23.238;2023-05-16T03:46:35;18.85;;;12.45;;
66751;SDS011;53663;42.676;23.238;2023-05-16T03:49:01;19.40;;;13.70;;
66751;SDS011;53663;42.676;23.238;2023-05-16T03:51:26;23.63;;;14.52;;
66751;SDS011;53663;42.676;23.238;2023-05-16T03:53:52;18.65;;;13.50;;
66751;SDS011;53663;42.676;23.238;2023-05-16T03:56:18;21.48;;;13.00;;
66751;SDS011;53663;42.676;23.238;2023-05-16T03:58:44;24.13;;;13.95;;
66751;SDS011;53663;42.676;23.238;2023-05-16T04:01:09;19.17;;;13.25;;
66751;SDS011;53663;42.676;23.238;2023-05-16T04:03:35;26.77;;;13.60;;
66751;SDS011;53663;42.676;23.238;2023-05-16T04:06:02;16.88;;;13.32;;
66751;SDS011;53663;42.676;23.238;2023-05-16T04:08:28;19.88;;;12.38;;
66751;SDS011;53663;42.676;23.238;2023-05-16T04:10:53;19.95;;;13.02;;
66751;SDS011;53663;42.676;23.238;2023-05-16T04:13:20;18.30;;;12.45;;
66751;SDS011;53663;42.676;23.238;2023-05-16T04:15:45;22.85;;;12.18;;
66751;SDS011;53663;42.676;23.238;2023-05-16T04:18:11;15.88;;;12.27;;
66751;SDS011;53663;42.676;23.238;2023-05-16T04:20:37;20.30;;;12.68;;
66751;SDS011;53663;42.676;23.238;2023-05-16T04:23:03;19.77;;;12.68;;
66751;SDS011;53663;42.676;23.238;2023-05-16T04:25:28;24.90;;;12.82;;
66751;SDS011;53663;42.676;23.238;2023-05-16T04:27:55;22.55;;;13.10;;
66751;SDS011;53663;42.676;23.238;2023-05-16T04:30:21;20.70;;;13.13;;
66751;SDS011;53663;42.676;23.238;2023-05-16T04:32:46;21.02;;;13.32;;
66751;SDS011;53663;42.676;23.238;2023-05-16T04:35:12;17.75;;;12.75;;
66751;SDS011;53663;42.676;23.238;2023-05-16T04:37:37;23.08;;;12.30;;
66751;SDS011;53663;42.676;23.238;2023-05-16T04:40:03;26.38;;;13.70;;
66751;SDS011;53663;42.676;23.238;2023-05-16T04:42:31;23.63;;;13.27;;
66751;SDS011;53663;42.676;23.238;2023-05-16T04:44:57;24.23;;;13.85;;
66751;SDS011;53663;42.676;23.238;2023-05-16T04:47:22;21.25;;;14.65;;
66751;SDS011;53663;42.676;23.238;2023-05-16T04:49:48;18.27;;;13.20;;
66751;SDS011;53663;42.676;23.238;2023-05-16T04:52:13;21.13;;;13.70;;
66751;SDS011;53663;42.676;23.238;2023-05-16T04:54:39;19.13;;;13.23;;
66751;SDS011;53663;42.676;23.238;2023-05-16T04:57:04;19.48;;;13.50;;
66751;SDS011;53663;42.676;23.238;2023-05-16T04:59:30;28.88;;;13.13;;
66751;SDS011;53663;42.676;23.238;2023-05-16T05:01:55;22.63;;;12.57;;
66751;SDS011;53663;42.676;23.238;2023-05-16T05:04:21;22.10;;;13.05;;
66751;SDS011;53663;42.676;23.238;2023-05-16T05:06:47;17.10;;;12.57;;
66751;SDS011;53663;42.676;23.238;2023-05-16T05:09:12;23.52;;;12.93;;
66751;SDS011;53663;42.676;23.238;2023-05-16T05:11:38;27.70;;;12.63;;
66751;SDS011;53663;42.676;23.238;2023-05-16T05:14:03;20.20;;;13.38;;
66751;SDS011;53663;42.676;23.238;2023-05-16T05:16:29;22.60;;;13.20;;
66751;SDS011;53663;42.676;23.238;2023-05-16T05:18:55;23.50;;;14.40;;
66751;SDS011;53663;42.676;23.238;2023-05-16T05:21:20;27.55;;;15.90;;
66751;SDS011;53663;42.676;23.238;2023-05-16T05:23:48;23.42;;;15.23;;
66751;SDS011;53663;42.676;23.238;2023-05-16T05:26:13;28.38;;;15.70;;
66751;SDS011;53663;42.676;23.238;2023-05-16T05:28:39;23.88;;;15.18;;
66751;SDS011;53663;42.676;23.238;2023-05-16T05:31:05;28.40;;;15.10;;
66751;SDS011;53663;42.676;23.238;2023-05-16T05:33:32;32.40;;;18.05;;
66751;SDS011;53663;42.676;23.238;2023-05-16T05:35:57;30.92;;;17.10;;
66751;SDS011;53663;42.676;23.238;2023-05-16T05:38:23;32.75;;;17.63;;
66751;SDS011;53663;42.676;23.238;2023-05-16T05:40:48;40.80;;;20.17;;
66751;SDS011;53663;42.676;23.238;2023-05-16T05:43:14;31.25;;;17.98;;
66751;SDS011;53663;42.676;23.238;2023-05-16T05:45:40;22.70;;;13.95;;
66751;SDS011;53663;42.676;23.238;2023-05-16T05:48:06;29.30;;;13.88;;
66751;SDS011;53663;42.676;23.238;2023-05-16T05:50:32;20.65;;;14.05;;
66751;SDS011;53663;42.676;23.238;2023-05-16T05:52:57;23.00;;;14.40;;
66751;SDS011;53663;42.676;23.238;2023-05-16T05:55:23;22.38;;;13.68;;
66751;SDS011;53663;42.676;23.238;2023-05-16T05:57:48;19.00;;;13.82;;
66751;SDS011;53663;42.676;23.238;2023-05-16T06:00:14;19.45;;;13.25;;
66751;SDS011;53663;42.676;23.238;2023-05-16T06:02:40;20.75;;;12.38;;
66751;SDS011;53663;42.676;23.238;2023-05-16T06:05:05;21.38;;;13.05;;
66751;SDS011;53663;42.676;23.238;2023-05-16T06:07:31;23.70;;;13.73;;
66751;SDS011;53663;42.676;23.238;2023-05-16T06:09:57;25.90;;;13.07;;
66751;SDS011;53663;42.676;23.238;2023-05-16T06:12:22;24.45;;;12.80;;
66751;SDS011;53663;42.676;23.238;2023-05-16T06:14:48;23.75;;;13.75;;
66751;SDS011;53663;42.676;23.238;2023-05-16T06:17:13;22.95;;;13.25;;
66751;SDS011;53663;42.676;23.238;2023-05-16T06:19:39;19.10;;;11.35;;
66751;SDS011;53663;42.676;23.238;2023-05-16T06:22:04;21.83;;;12.77;;
66751;SDS011;53663;42.676;23.238;2023-05-16T06:24:30;21.27;;;11.82;;
66751;SDS011;53663;42.676;23.238;2023-05-16T06:26:55;21.92;;;11.55;;
66751;SDS011;53663;42.676;23.238;2023-05-16T06:29:21;19.73;;;11.93;;
66751;SDS011;53663;42.676;23.238;2023-05-16T06:31:47;24.25;;;12.20;;
66751;SDS011;53663;42.676;23.238;2023-05-16T06:34:12;21.88;;;11.70;;
66751;SDS011;53663;42.676;23.238;2023-05-16T06:36:38;23.45;;;12.32;;
66751;SDS011;53663;42.676;23.238;2023-05-16T06:39:03;21.92;;;11.48;;
66751;SDS011;53663;42.676;23.238;2023-05-16T06:41:29;21.92;;;13.13;;
66751;SDS011;53663;42.676;23.238;2023-05-16T06:43:55;29.38;;;10.65;;
66751;SDS011;53663;42.676;23.238;2023-05-16T06:46:21;26.27;;;10.85;;
66751;SDS011;53663;42.676;23.238;2023-05-16T06:48:47;19.85;;;11.13;;
66751;SDS011;53663;42.676;23.238;2023-05-16T06:51:12;26.30;;;11.45;;
66751;SDS011;53663;42.676;23.238;2023-05-16T06:53:38;21.88;;;11.95;;
66751;SDS011;53663;42.676;23.238;2023-05-16T06:56:03;22.05;;;9.23;;
66751;SDS011;53663;42.676;23.238;2023-05-16T06:58:29;17.70;;;8.75;;
66751;SDS011;53663;42.676;23.238;2023-05-16T07:00:55;21.15;;;9.23;;
66751;SDS011;53663;42.676;23.238;2023-05-16T07:03:20;18.75;;;9.40;;
66751;SDS011;53663;42.676;23.238;2023-05-16T07:05:46;28.30;;;9.23;;
66751;SDS011;53663;42.676;23.238;2023-05-16T07:08:11;14.85;;;7.53;;
66751;SDS011;53663;42.676;23.238;2023-05-16T07:10:37;17.95;;;8.15;;
66751;SDS011;53663;42.676;23.238;2023-05-16T07:13:03;17.73;;;8.30;;
66751;SDS011;53663;42.676;23.238;2023-05-16T07:15:29;20.73;;;7.13;;
66751;SDS011;53663;42.676;23.238;2023-05-16T07:17:55;17.45;;;8.98;;
66751;SDS011;53663;42.676;23.238;2023-05-16T07:20:21;11.88;;;7.50;;
66751;SDS011;53663;42.676;23.238;2023-05-16T07:22:47;17.90;;;8.38;;
66751;SDS011;53663;42.676;23.238;2023-05-16T07:25:12;19.33;;;7.80;;
66751;SDS011;53663;42.676;23.238;2023-05-16T07:27:39;14.52;;;7.90;;
66751;SDS011;53663;42.676;23.238;2023-05-16T07:30:07;15.93;;;7.57;;
66751;SDS011;53663;42.676;23.238;2023-05-16T07:32:33;13.98;;;7.82;;
66751;SDS011;53663;42.676;23.238;2023-05-16T07:34:59;21.02;;;7.63;;
66751;SDS011;53663;42.676;23.238;2023-05-16T07:37:25;16.65;;;6.93;;
66751;SDS011;53663;42.676;23.238;2023-05-16T07:39:50;19.63;;;6.63;;
66751;SDS011;53663;42.676;23.238;2023-05-16T07:42:15;18.08;;;6.90;;
66751;SDS011;53663;42.676;23.238;2023-05-16T07:44:41;13.18;;;7.43;;
66751;SDS011;53663;42.676;23.238;2023-05-16T07:47:06;14.05;;;7.43;;
66751;SDS011;53663;42.676;23.238;2023-05-16T07:49:32;12.00;;;6.95;;
66751;SDS011;53663;42.676;23.238;2023-05-16T07:51:57;13.50;;;6.78;;
66751;SDS011;53663;42.676;23.238;2023-05-16T07:54:23;12.45;;;6.43;;
66751;SDS011;53663;42.676;23.238;2023-05-16T07:56:49;12.75;;;6.25;;
66751;SDS011;53663;42.676;23.238;2023-05-16T07:59:14;19.35;;;7.43;;
66751;SDS011;53663;42.676;23.238;2023-05-16T08:01:40;13.23;;;6.93;;
66751;SDS011;53663;42.676;23.238;2023-05-16T08:04:05;20.77;;;7.63;;
66751;SDS011;53663;42.676;23.238;2023-05-16T08:06:31;16.02;;;6.93;;
66751;SDS011;53663;42.676;23.238;2023-05-16T08:08:56;11.02;;;6.88;;
66751;SDS011;53663;42.676;23.238;2023-05-16T08:11:22;13.85;;;6.65;;
66751;SDS011;53663;42.676;23.238;2023-05-16T08:13:48;18.55;;;6.90;;
66751;SDS011;53663;42.676;23.238;2023-05-16T08:16:13;24.33;;;6.78;;
66751;SDS011;53663;42.676;23.238;2023-05-16T08:18:39;10.98;;;6.18;;
66751;SDS011;53663;42.676;23.238;2023-05-16T08:21:05;12.68;;;6.75;;
66751;SDS011;53663;42.676;23.238;2023-05-16T08:23:30;21.58;;;8.30;;
66751;SDS011;53663;42.676;23.238;2023-05-16T08:25:56;17.90;;;7.25;;
66751;SDS011;53663;42.676;23.238;2023-05-16T08:28:22;17.45;;;7.38;;
66751;SDS011;53663;42.676;23.238;2023-05-16T08:30:48;15.15;;;7.47;;
66751;SDS011;53663;42.676;23.238;2023-05-16T08:33:14;20.42;;;8.65;;
66751;SDS011;53663;42.676;23.238;2023-05-16T08:35:43;14.57;;;5.93;;
66751;SDS011;53663;42.676;23.238;2023-05-16T08:38:09;17.65;;;7.47;;
66751;SDS011;53663;42.676;23.238;2023-05-16T08:40:35;19.25;;;7.40;;
66751;SDS011;53663;42.676;23.238;2023-05-16T08:43:00;15.30;;;6.13;;
66751;SDS011;53663;42.676;23.238;2023-05-16T08:45:26;16.33;;;5.97;;
66751;SDS011;53663;42.676;23.238;2023-05-16T08:47:53;20.33;;;6.30;;
66751;SDS011;53663;42.676;23.238;2023-05-16T08:50:21;11.23;;;6.03;;
66751;SDS011;53663;42.676;23.238;2023-05-16T08:52:46;14.98;;;6.78;;
66751;SDS011;53663;42.676;23.238;2023-05-16T08:55:16;15.27;;;5.77;;
66751;SDS011;53663;42.676;23.238;2023-05-16T08:57:44;16.00;;;6.15;;
66751;SDS011;53663;42.676;23.238;2023-05-16T09:00:10;13.57;;;5.53;;
66751;SDS011;53663;42.676;23.238;2023-05-16T09:02:38;15.82;;;5.63;;
66751;SDS011;53663;42.676;23.238;2023-05-16T09:05:04;15.27;;;5.90;;
66751;SDS011;53663;42.676;23.238;2023-05-16T09:07:32;17.23;;;5.57;;
66751;SDS011;53663;42.676;23.238;2023-05-16T09:09:58;13.38;;;5.78;;
66751;SDS011;53663;42.676;23.238;2023-05-16T09:12:23;17.20;;;5.70;;
66751;SDS011;53663;42.676;23.238;2023-05-16T09:14:49;15.93;;;5.10;;
66751;SDS011;53663;42.676;23.238;2023-05-16T09:17:14;13.13;;;4.85;;
66751;SDS011;53663;42.676;23.238;2023-05-16T09:19:41;12.68;;;4.85;;
66751;SDS011;53663;42.676;23.238;2023-05-16T09:22:08;11.73;;;5.47;;
66751;SDS011;53663;42.676;23.238;2023-05-16T09:24:39;14.20;;;4.85;;
66751;SDS011;53663;42.676;23.238;2023-05-16T09:27:12;20.00;;;6.20;;
66751;SDS011;53663;42.676;23.238;2023-05-16T09:29:41;17.17;;;5.78;;
66751;SDS011;53663;42.676;23.238;2023-05-16T09:32:12;14.65;;;5.68;;
66751;SDS011;53663;42.676;23.238;2023-05-16T09:34:42;12.25;;;4.88;;
66751;SDS011;53663;42.676;23.238;2023-05-16T09:37:13;13.32;;;6.05;;
66751;SDS011;53663;42.676;23.238;2023-05-16T09:42:16;14.30;;;5.75;;
66751;SDS011;53663;42.676;23.238;2023-05-16T09:44:47;8.48;;;5.13;;
66751;SDS011;53663;42.676;23.238;2023-05-16T09:47:15;11.00;;;5.60;;
66751;SDS011;53663;42.676;23.238;2023-05-16T09:49:42;11.95;;;4.90;;
66751;SDS011;53663;42.676;23.238;2023-05-16T09:52:10;9.43;;;5.93;;
66751;SDS011;53663;42.676;23.238;2023-05-16T09:54:36;12.30;;;5.18;;
66751;SDS011;53663;42.676;23.238;2023-05-16T09:57:01;11.10;;;5.43;;
66751;SDS011;53663;42.676;23.238;2023-05-16T09:59:27;25.40;;;5.93;;
66751;SDS011;53663;42.676;23.238;2023-05-16T10:01:54;10.70;;;6.30;;
66751;SDS011;53663;42.676;23.238;2023-05-16T10:04:23;13.15;;;5.93;;
66751;SDS011;53663;42.676;23.238;2023-05-16T10:06:49;16.70;;;6.30;;
66751;SDS011;53663;42.676;23.238;2023-05-16T10:09:16;16.50;;;6.32;;
66751;SDS011;53663;42.676;23.238;2023-05-16T10:11:42;11.00;;;5.70;;
66751;SDS011;53663;42.676;23.238;2023-05-16T10:14:10;22.90;;;6.32;;
66751;SDS011;53663;42.676;23.238;2023-05-16T10:16:36;23.77;;;6.10;;
66751;SDS011;53663;42.676;23.238;2023-05-16T10:19:06;13.95;;;5.80;;
66751;SDS011;53663;42.676;23.238;2023-05-16T10:21:32;13.32;;;5.68;;
66751;SDS011;53663;42.676;23.238;2023-05-16T10:23:58;17.10;;;5.32;;
66751;SDS011;53663;42.676;23.238;2023-05-16T10:26:28;17.80;;;6.13;;
66751;SDS011;53663;42.676;23.238;2023-05-16T10:28:56;13.23;;;5.65;;
66751;SDS011;53663;42.676;23.238;2023-05-16T10:31:21;18.10;;;5.95;;
66751;SDS011;53663;42.676;23.238;2023-05-16T10:33:48;13.82;;;5.72;;
66751;SDS011;53663;42.676;23.238;2023-05-16T10:36:14;21.05;;;5.80;;
66751;SDS011;53663;42.676;23.238;2023-05-16T10:38:41;11.45;;;5.25;;
66751;SDS011;53663;42.676;23.238;2023-05-16T10:41:07;15.57;;;6.07;;
66751;SDS011;53663;42.676;23.238;2023-05-16T10:43:34;15.60;;;5.60;;
66751;SDS011;53663;42.676;23.238;2023-05-16T10:46:07;15.68;;;5.97;;
66751;SDS011;53663;42.676;23.238;2023-05-16T10:48:34;16.08;;;6.32;;
66751;SDS011;53663;42.676;23.238;2023-05-16T10:51:02;15.93;;;8.25;;
66751;SDS011;53663;42.676;23.238;2023-05-16T10:53:54;14.85;;;7.15;;
66751;SDS011;53663;42.676;23.238;2023-05-16T10:56:28;21.27;;;6.75;;
66751;SDS011;53663;42.676;23.238;2023-05-16T10:58:57;13.13;;;6.43;;
66751;SDS011;53663;42.676;23.238;2023-05-16T11:01:23;15.10;;;6.57;;
66751;SDS011;53663;42.676;23.238;2023-05-16T11:06:21;13.85;;;6.05;;
66751;SDS011;53663;42.676;23.238;2023-05-16T11:14:34;16.83;;;6.72;;
66751;SDS011;53663;42.676;23.238;2023-05-16T11:22:08;17.10;;;6.47;;
66751;SDS011;53663;42.676;23.238;2023-05-16T11:27:29;14.55;;;6.47;;
66751;SDS011;53663;42.676;23.238;2023-05-16T11:30:03;15.35;;;5.95;;
66751;SDS011;53663;42.676;23.238;2023-05-16T11:32:37;25.35;;;7.18;;
66751;SDS011;53663;42.676;23.238;2023-05-16T11:35:05;23.40;;;6.18;;
66751;SDS011;53663;42.676;23.238;2023-05-16T11:37:33;16.65;;;6.65;;
66751;SDS011;53663;42.676;23.238;2023-05-16T11:40:04;24.33;;;7.22;;
66751;SDS011;53663;42.676;23.238;2023-05-16T11:42:35;21.85;;;7.80;;
66751;SDS011;53663;42.676;23.238;2023-05-16T11:45:06;15.65;;;7.78;;
66751;SDS011;53663;42.676;23.238;2023-05-16T11:47:35;17.58;;;7.50;;
66751;SDS011;53663;42.676;23.238;2023-05-16T11:50:05;21.15;;;8.68;;
66751;SDS011;53663;42.676;23.238;2023-05-16T11:52:34;21.13;;;7.55;;
66751;SDS011;53663;42.676;23.238;2023-05-16T11:54:59;16.42;;;7.07;;
66751;SDS011;53663;42.676;23.238;2023-05-16T11:57:26;13.27;;;6.63;;
66751;SDS011;53663;42.676;23.238;2023-05-16T11:59:52;18.40;;;7.00;;
66751;SDS011;53663;42.676;23.238;2023-05-16T12:02:19;17.17;;;7.07;;
66751;SDS011;53663;42.676;23.238;2023-05-16T12:04:45;38.05;;;18.35;;
66751;SDS011;53663;42.676;23.238;2023-05-16T12:07:13;17.77;;;8.13;;
66751;SDS011;53663;42.676;23.238;2023-05-16T12:09:39;29.30;;;10.70;;
66751;SDS011;53663;42.676;23.238;2023-05-16T12:12:04;28.23;;;13.00;;
66751;SDS011;53663;42.676;23.238;2023-05-16T12:14:31;28.20;;;13.13;;
66751;SDS011;53663;42.676;23.238;2023-05-16T12:16:57;20.60;;;9.77;;
66751;SDS011;53663;42.676;23.238;2023-05-16T12:19:23;24.90;;;9.30;;
66751;SDS011;53663;42.676;23.238;2023-05-16T12:21:52;19.02;;;8.00;;
66751;SDS011;53663;42.676;23.238;2023-05-16T12:24:18;24.98;;;8.85;;
66751;SDS011;53663;42.676;23.238;2023-05-16T12:26:43;20.00;;;7.95;;
66751;SDS011;53663;42.676;23.238;2023-05-16T12:29:09;13.85;;;6.53;;
66751;SDS011;53663;42.676;23.238;2023-05-16T12:31:36;15.27;;;6.45;;
66751;SDS011;53663;42.676;23.238;2023-05-16T12:34:27;14.57;;;6.80;;
66751;SDS011;53663;42.676;23.238;2023-05-16T12:36:53;22.23;;;6.93;;
66751;SDS011;53663;42.676;23.238;2023-05-16T12:39:19;22.40;;;7.85;;
66751;SDS011;53663;42.676;23.238;2023-05-16T12:41:45;13.52;;;6.72;;
66751;SDS011;53663;42.676;23.238;2023-05-16T12:44:11;18.58;;;7.13;;
66751;SDS011;53663;42.676;23.238;2023-05-16T12:46:40;17.15;;;7.32;;
66751;SDS011;53663;42.676;23.238;2023-05-16T12:49:06;23.42;;;8.85;;
66751;SDS011;53663;42.676;23.238;2023-05-16T12:51:32;18.10;;;7.20;;
66751;SDS011;53663;42.676;23.238;2023-05-16T12:54:05;16.35;;;7.20;;
66751;SDS011;53663;42.676;23.238;2023-05-16T12:56:38;18.77;;;6.78;;
66751;SDS011;53663;42.676;23.238;2023-05-16T12:59:05;18.13;;;7.30;;
66751;SDS011;53663;42.676;23.238;2023-05-16T13:01:31;28.13;;;7.50;;
66751;SDS011;53663;42.676;23.238;2023-05-16T13:03:57;19.90;;;7.55;;
66751;SDS011;53663;42.676;23.238;2023-05-16T13:06:23;30.02;;;8.05;;
66751;SDS011;53663;42.676;23.238;2023-05-16T13:08:48;26.15;;;8.07;;
66751;SDS011;53663;42.676;23.238;2023-05-16T13:11:14;25.65;;;8.02;;
66751;SDS011;53663;42.676;23.238;2023-05-16T13:13:39;16.50;;;8.38;;
66751;SDS011;53663;42.676;23.238;2023-05-16T13:16:05;26.90;;;10.50;;
66751;SDS011;53663;42.676;23.238;2023-05-16T13:18:31;21.13;;;9.52;;
66751;SDS011;53663;42.676;23.238;2023-05-16T13:20:57;24.48;;;9.70;;
66751;SDS011;53663;42.676;23.238;2023-05-16T13:23:22;17.88;;;7.85;;
66751;SDS011;53663;42.676;23.238;2023-05-16T13:25:48;18.00;;;7.80;;
66751;SDS011;53663;42.676;23.238;2023-05-16T13:28:14;16.45;;;7.40;;
66751;SDS011;53663;42.676;23.238;2023-05-16T13:30:39;17.77;;;7.70;;
66751;SDS011;53663;42.676;23.238;2023-05-16T13:33:05;16.75;;;7.55;;
66751;SDS011;53663;42.676;23.238;2023-05-16T13:35:30;20.77;;;8.63;;
66751;SDS011;53663;42.676;23.238;2023-05-16T13:37:56;20.08;;;8.23;;
66751;SDS011;53663;42.676;23.238;2023-05-16T13:40:21;29.20;;;9.13;;
66751;SDS011;53663;42.676;23.238;2023-05-16T13:42:47;18.60;;;8.85;;
66751;SDS011;53663;42.676;23.238;2023-05-16T13:45:13;16.25;;;8.07;;
66751;SDS011;53663;42.676;23.238;2023-05-16T13:47:38;23.25;;;9.40;;
66751;SDS011;53663;42.676;23.238;2023-05-16T13:50:04;13.32;;;7.72;;
66751;SDS011;53663;42.676;23.238;2023-05-16T13:52:34;18.27;;;8.55;;
66751;SDS011;53663;42.676;23.238;2023-05-16T13:55:00;21.98;;;8.48;;
66751;SDS011;53663;42.676;23.238;2023-05-16T13:57:25;19.13;;;9.00;;
66751;SDS011;53663;42.676;23.238;2023-05-16T13:59:52;18.50;;;8.05;;
66751;SDS011;53663;42.676;23.238;2023-05-16T14:02:17;13.98;;;7.93;;
66751;SDS011;53663;42.676;23.238;2023-05-16T14:04:43;16.38;;;8.07;;
66751;SDS011;53663;42.676;23.238;2023-05-16T14:07:09;20.65;;;8.40;;
66751;SDS011;53663;42.676;23.238;2023-05-16T14:09:34;21.58;;;8.73;;
66751;SDS011;53663;42.676;23.238;2023-05-16T14:12:03;22.40;;;9.02;;
66751;SDS011;53663;42.676;23.238;2023-05-16T14:14:31;24.85;;;10.35;;
66751;SDS011;53663;42.676;23.238;2023-05-16T14:16:57;23.13;;;9.65;;
66751;SDS011;53663;42.676;23.238;2023-05-16T14:19:23;14.13;;;9.25;;
66751;SDS011;53663;42.676;23.238;2023-05-16T14:21:49;15.65;;;8.65;;
66751;SDS011;53663;42.676;23.238;2023-05-16T14:24:14;25.98;;;9.48;;
66751;SDS011;53663;42.676;23.238;2023-05-16T14:26:40;27.73;;;10.90;;
66751;SDS011;53663;42.676;23.238;2023-05-16T14:29:05;16.65;;;10.05;;
66751;SDS011;53663;42.676;23.238;2023-05-16T14:31:31;20.92;;;9.45;;
66751;SDS011;53663;42.676;23.238;2023-05-16T14:33:57;22.05;;;9.00;;
66751;SDS011;53663;42.676;23.238;2023-05-16T14:36:23;17.48;;;7.93;;
66751;SDS011;53663;42.676;23.238;2023-05-16T14:38:49;18.13;;;7.15;;
66751;SDS011;53663;42.676;23.238;2023-05-16T14:41:14;20.15;;;7.03;;
66751;SDS011;53663;42.676;23.238;2023-05-16T14:43:40;15.48;;;6.78;;
66751;SDS011;53663;42.676;23.238;2023-05-16T14:46:06;20.13;;;7.00;;
66751;SDS011;53663;42.676;23.238;2023-05-16T14:48:31;14.48;;;6.75;;
66751;SDS011;53663;42.676;23.238;2023-05-16T14:50:57;22.73;;;7.20;;
66751;SDS011;53663;42.676;23.238;2023-05-16T14:53:23;19.42;;;7.53;;
66751;SDS011;53663;42.676;23.238;2023-05-16T14:55:48;19.75;;;7.65;;